createdAt,value
2018-06-12T00:02:40.054Z,15.27
2018-06-12T00:06:43.083Z,14.83
2018-06-12T00:10:45.802Z,14.27
2018-06-12T00:14:51.683Z,14.47
2018-06-12T00:18:54.381Z,14.63
2018-06-12T00:22:57.323Z,13.70
2018-06-12T00:26:59.971Z,13.07
2018-06-12T00:31:03.058Z,13.33
2018-06-12T00:35:05.957Z,13.33
2018-06-12T00:39:09.073Z,14.37
2018-06-12T00:43:11.704Z,14.47
2018-06-12T00:47:14.390Z,14.17
2018-06-12T00:51:17.013Z,15.07
2018-06-12T00:55:23.626Z,14.83
2018-06-12T00:59:26.290Z,15.77
2018-06-12T01:03:28.978Z,15.97
2018-06-12T01:07:31.797Z,16.57
2018-06-12T01:11:36.822Z,16.00
2018-06-12T01:15:39.484Z,18.07
2018-06-12T01:19:42.192Z,18.80
2018-06-12T01:23:44.845Z,19.70
2018-06-12T01:27:47.501Z,18.90
2018-06-12T01:31:52.588Z,19.40
2018-06-12T01:35:55.384Z,18.17
2018-06-12T01:39:58.012Z,18.87
2018-06-12T01:44:01.287Z,17.77
2018-06-12T01:48:04.393Z,17.43
2018-06-12T01:52:07.506Z,17.80
2018-06-12T01:56:10.181Z,17.57
2018-06-12T02:00:12.986Z,16.07
2018-06-12T02:04:15.633Z,17.73
2018-06-12T02:08:19.394Z,18.03
2018-06-12T02:12:22.220Z,17.37
2018-06-12T02:16:25.019Z,18.27
2018-06-12T02:20:35.517Z,15.97
2018-06-12T02:24:38.346Z,16.33
2018-06-12T02:28:41.004Z,15.20
2018-06-12T02:32:43.947Z,14.90
2018-06-12T02:36:46.736Z,14.87
2018-06-12T02:41:02.138Z,14.73
2018-06-12T02:45:05.261Z,14.00
2018-06-12T02:49:08.226Z,14.40
2018-06-12T02:53:10.872Z,15.57
2018-06-12T02:57:13.630Z,14.57
2018-06-12T03:01:16.365Z,16.03
2018-06-12T03:05:19.119Z,14.27
2018-06-12T03:09:21.831Z,14.37
2018-06-12T03:13:24.648Z,14.73
2018-06-12T03:17:27.340Z,14.50
2018-06-12T03:21:30.024Z,14.77
2018-06-12T03:25:33.513Z,15.27
2018-06-12T03:29:36.600Z,14.33
2018-06-12T03:33:39.286Z,15.50
2018-06-12T03:37:42.200Z,14.40
2018-06-12T03:41:44.830Z,14.67
2018-06-12T03:45:47.490Z,14.70
2018-06-12T03:49:50.195Z,13.57
2018-06-12T03:53:53.070Z,13.63
2018-06-12T03:57:55.725Z,13.40
2018-06-12T04:01:58.830Z,12.93
2018-06-12T04:06:02.445Z,13.87
2018-06-12T04:10:05.842Z,13.33
2018-06-12T04:14:08.542Z,13.20
2018-06-12T04:18:11.219Z,13.80
2018-06-12T04:22:13.903Z,12.97
2018-06-12T04:26:16.667Z,12.77
2018-06-12T04:30:22.500Z,12.87
2018-06-12T04:34:31.078Z,12.33
2018-06-12T04:38:34.827Z,13.20
2018-06-12T04:42:37.640Z,13.73
2018-06-12T04:46:40.290Z,13.00
2018-06-12T04:50:43.056Z,13.40
2018-06-12T04:54:45.662Z,12.77
2018-06-12T04:58:48.407Z,12.13
2018-06-12T05:03:02.833Z,12.77
2018-06-12T05:07:06.059Z,10.00
2018-06-12T05:11:08.673Z,9.17
2018-06-12T05:15:11.506Z,9.87
2018-06-12T05:19:22.056Z,10.03
2018-06-12T05:23:24.843Z,9.93
2018-06-12T05:27:27.518Z,9.10
2018-06-12T05:31:30.227Z,9.03
2018-06-12T05:35:36.886Z,8.67
2018-06-12T05:39:39.711Z,8.40
2018-06-12T05:43:42.487Z,9.30
2018-06-12T05:47:45.229Z,9.20
2018-06-12T05:51:47.873Z,9.20
2018-06-12T05:55:51.863Z,7.93
2018-06-12T05:59:54.512Z,8.40
2018-06-12T06:03:58.650Z,7.20
2018-06-12T06:08:01.427Z,7.40
2018-06-12T06:12:04.506Z,7.87
2018-06-12T06:16:07.382Z,6.90
2018-06-12T06:20:10.326Z,7.67
2018-06-12T06:24:12.930Z,7.20
2018-06-12T06:28:15.635Z,7.27
2018-06-12T06:32:18.306Z,7.57
2018-06-12T06:36:21.306Z,7.03
2018-06-12T06:40:24.190Z,6.63
2018-06-12T06:44:28.121Z,6.47
2018-06-12T06:48:30.976Z,5.70
2018-06-12T06:52:34.071Z,6.17
2018-06-12T06:56:36.956Z,5.70
2018-06-12T07:00:39.634Z,6.83
2018-06-12T07:04:42.253Z,5.80
2018-06-12T07:08:44.956Z,6.47
2018-06-12T07:12:47.597Z,5.90
2018-06-12T07:16:50.458Z,6.13
2018-06-12T07:21:05.063Z,6.00
2018-06-12T07:25:08.080Z,6.20
2018-06-12T07:29:10.731Z,7.50
2018-06-12T07:33:26.046Z,6.17
2018-06-12T07:37:29.000Z,6.70
2018-06-12T07:41:33.538Z,6.87
2018-06-12T07:49:47.712Z,5.97
2018-06-12T07:53:53.942Z,5.77
2018-06-12T07:57:56.738Z,5.43
2018-06-12T08:02:01.598Z,5.80
2018-06-12T08:06:04.507Z,6.27
2018-06-12T08:10:07.354Z,6.47
2018-06-12T08:14:10.186Z,6.23
2018-06-12T08:18:12.809Z,6.63
2018-06-12T08:22:15.598Z,6.80
2018-06-12T08:26:18.226Z,6.03
2018-06-12T08:30:21.122Z,6.60
2018-06-12T08:34:29.562Z,5.73
2018-06-12T08:38:32.773Z,6.40
2018-06-12T08:42:35.697Z,6.90
2018-06-12T08:46:38.434Z,6.50
2018-06-12T08:50:41.090Z,6.53
2018-06-12T08:54:43.882Z,6.87
2018-06-12T08:58:47.521Z,5.87
2018-06-12T09:02:50.846Z,6.27
2018-06-12T09:06:53.472Z,7.53
2018-06-12T09:10:56.211Z,6.87
2018-06-12T09:14:58.942Z,6.90
2018-06-12T09:19:01.975Z,7.03
2018-06-12T09:23:07.976Z,6.97
2018-06-12T09:27:11.042Z,7.30
2018-06-12T09:31:13.660Z,7.53
2018-06-12T09:35:16.314Z,7.40
2018-06-12T09:39:22.777Z,7.67
2018-06-12T09:43:25.643Z,6.90
2018-06-12T09:47:28.238Z,6.90
2018-06-12T09:51:31.231Z,7.30
2018-06-12T09:55:34.076Z,7.40
2018-06-12T09:59:37.050Z,7.40
2018-06-12T10:03:50.118Z,7.13
2018-06-12T10:07:53.093Z,7.17
2018-06-12T10:11:55.819Z,6.37
2018-06-12T10:15:58.631Z,6.77
2018-06-12T10:20:01.361Z,6.23
2018-06-12T10:24:04.327Z,5.40
2018-06-12T10:28:08.118Z,5.57
2018-06-12T10:32:10.808Z,4.57
2018-06-12T10:36:17.954Z,4.70
2018-06-12T10:40:22.050Z,5.17
2018-06-12T10:44:24.994Z,4.33
2018-06-12T10:48:33.019Z,5.97
2018-06-12T10:52:35.915Z,4.83
2018-06-12T10:56:38.658Z,4.70
2018-06-12T11:00:41.371Z,4.50
2018-06-12T11:04:44.553Z,4.40
2018-06-12T11:08:53.434Z,4.17
2018-06-12T11:17:14.551Z,4.03
2018-06-12T11:21:23.106Z,3.70
2018-06-12T11:25:26.853Z,3.90
2018-06-12T11:29:30.423Z,3.43
2018-06-12T11:33:34.170Z,3.30
2018-06-12T11:37:39.782Z,3.93
2018-06-12T11:41:43.234Z,3.87
2018-06-12T11:45:48.855Z,4.10
2018-06-12T11:49:52.815Z,4.50
2018-06-12T11:53:58.010Z,4.20
2018-06-12T11:58:01.803Z,4.20
2018-06-12T12:02:05.612Z,4.80
2018-06-12T12:06:09.341Z,4.10
2018-06-12T12:10:14.065Z,3.97
2018-06-12T12:14:17.715Z,4.07
2018-06-12T12:18:21.323Z,4.03
2018-06-12T12:22:25.227Z,4.33
2018-06-12T12:26:28.863Z,4.53
2018-06-12T12:30:33.070Z,4.03
2018-06-12T12:34:36.978Z,4.17
2018-06-12T12:38:40.666Z,3.77
2018-06-12T12:42:44.156Z,4.30
2018-06-12T12:46:50.136Z,3.93
2018-06-12T12:50:53.785Z,4.13
2018-06-12T12:54:57.503Z,4.57
2018-06-12T12:59:05.471Z,4.73
2018-06-12T13:03:09.338Z,4.47
2018-06-12T13:07:12.894Z,4.60
2018-06-12T13:11:16.585Z,4.43
2018-06-12T13:15:20.444Z,4.13
2018-06-12T13:19:25.052Z,4.40
2018-06-12T13:23:34.061Z,4.47
2018-06-12T13:27:40.206Z,4.50
2018-06-12T13:31:43.851Z,4.90
2018-06-12T13:35:47.489Z,4.57
2018-06-12T13:39:51.143Z,4.70
2018-06-12T13:43:55.730Z,4.37
2018-06-12T13:48:02.909Z,4.40
2018-06-12T13:52:06.867Z,4.50
2018-06-12T13:56:10.391Z,4.93
2018-06-12T14:00:18.771Z,4.50
2018-06-12T14:04:24.315Z,4.60
2018-06-12T14:08:27.895Z,5.13
2018-06-12T14:12:33.511Z,4.30
2018-06-12T14:16:37.176Z,4.50
2018-06-12T14:20:40.818Z,4.13
2018-06-12T14:24:44.584Z,4.60
2018-06-12T14:28:52.066Z,4.37
2018-06-12T14:32:55.854Z,4.03
2018-06-12T14:37:03.782Z,4.27
2018-06-12T14:41:08.559Z,3.90
2018-06-12T14:45:23.766Z,4.20
2018-06-12T14:49:27.410Z,4.30
2018-06-12T14:53:30.997Z,4.50
2018-06-12T14:57:34.899Z,4.00
2018-06-12T15:01:39.565Z,3.70
2018-06-12T15:05:43.097Z,4.13
2018-06-12T15:09:46.659Z,3.97
2018-06-12T15:13:51.366Z,4.00
2018-06-12T15:17:54.915Z,4.80
2018-06-12T15:21:58.803Z,5.40
2018-06-12T15:26:02.436Z,4.93
2018-06-12T15:30:06.363Z,4.27
2018-06-12T15:34:09.892Z,4.50
2018-06-12T15:38:23.338Z,4.90
2018-06-12T15:42:26.958Z,4.87
2018-06-12T15:46:34.896Z,5.13
2018-06-12T15:50:40.483Z,5.70
2018-06-12T15:54:44.085Z,5.70
2018-06-12T15:58:47.558Z,5.67
2018-06-12T16:02:51.253Z,6.07
2018-06-12T16:06:54.788Z,5.27
2018-06-12T16:10:58.314Z,6.27
2018-06-12T16:15:02.286Z,6.87
2018-06-12T16:19:07.110Z,6.83
2018-06-12T16:23:11.314Z,6.83
2018-06-12T16:27:14.946Z,6.90
2018-06-12T16:31:18.431Z,6.30
2018-06-12T16:35:26.194Z,5.53
2018-06-12T16:39:29.804Z,6.27
2018-06-12T16:43:36.926Z,6.00
2018-06-12T16:47:42.859Z,5.47
2018-06-12T16:51:46.487Z,45.67
2018-06-12T16:55:50.008Z,13.17
2018-06-12T16:59:59.389Z,13.20
2018-06-12T17:04:05.034Z,6.10
2018-06-12T17:08:10.594Z,5.53
2018-06-12T17:12:15.162Z,5.97
2018-06-12T17:16:22.464Z,5.00
2018-06-12T17:20:25.985Z,5.47
2018-06-12T17:24:34.752Z,4.90
2018-06-12T17:28:38.365Z,5.30
2018-06-12T17:32:42.514Z,5.63
2018-06-12T17:36:47.066Z,6.40
2018-06-12T17:40:50.608Z,5.83
2018-06-12T17:44:55.294Z,6.17
2018-06-12T17:48:59.360Z,5.97
2018-06-12T17:53:04.719Z,6.63
2018-06-12T17:57:09.576Z,6.97
2018-06-12T18:01:13.206Z,7.87
2018-06-12T18:05:18.025Z,7.70
2018-06-12T18:09:22.580Z,8.10
2018-06-12T18:13:26.387Z,9.40
2018-06-12T18:17:30.027Z,11.57
2018-06-12T18:21:34.305Z,13.30
2018-06-12T18:25:38.477Z,12.10
2018-06-12T18:29:43.366Z,13.93
2018-06-12T18:33:52.419Z,14.33
2018-06-12T18:37:59.579Z,13.93
2018-06-12T18:42:03.502Z,13.80
2018-06-12T18:46:07.869Z,12.27
2018-06-12T18:50:12.250Z,11.97
2018-06-12T18:54:17.616Z,11.13
2018-06-12T18:58:24.703Z,9.93
2018-06-12T19:02:28.574Z,8.37
2018-06-12T19:06:32.277Z,8.67
2018-06-12T19:10:40.293Z,7.43
2018-06-12T19:14:43.981Z,8.20
2018-06-12T19:18:48.233Z,6.87
2018-06-12T19:22:57.727Z,6.77
2018-06-12T19:27:01.664Z,6.80
2018-06-12T19:31:07.381Z,6.80
2018-06-12T19:35:13.101Z,7.13
2018-06-12T19:39:16.756Z,7.23
2018-06-12T19:43:20.791Z,7.17
2018-06-12T19:47:28.591Z,7.60
2018-06-12T19:51:32.240Z,8.03
2018-06-12T19:55:36.013Z,8.10
2018-06-12T19:59:41.733Z,7.30
2018-06-12T20:03:45.751Z,8.07
2018-06-12T20:07:59.944Z,7.57
2018-06-12T20:12:13.577Z,9.03
2018-06-12T20:16:18.060Z,8.30
2018-06-12T20:20:22.712Z,7.93
2018-06-12T20:24:30.673Z,8.40
2018-06-12T20:28:49.528Z,9.03
2018-06-12T20:32:54.638Z,9.60
2018-06-12T20:36:58.434Z,8.20
2018-06-12T20:41:14.135Z,8.90
2018-06-12T20:45:17.820Z,8.63
2018-06-12T20:49:21.211Z,9.00
2018-06-12T20:53:24.719Z,10.43
2018-06-12T20:57:28.470Z,9.80
2018-06-12T21:01:32.859Z,10.13
2018-06-12T21:05:36.191Z,10.27
2018-06-12T21:09:41.890Z,10.23
2018-06-12T21:13:45.891Z,9.40
2018-06-12T21:18:07.538Z,10.33
2018-06-12T21:22:11.373Z,10.30
2018-06-12T21:26:15.128Z,9.60
2018-06-12T21:30:18.831Z,9.70
2018-06-12T21:34:23.470Z,9.27
2018-06-12T21:38:27.721Z,9.53
2018-06-12T21:42:31.199Z,9.10
2018-06-12T21:46:35.871Z,9.07
2018-06-12T21:50:39.753Z,8.97
2018-06-12T21:54:43.558Z,8.70
2018-06-12T21:58:47.285Z,8.70
2018-06-12T22:02:51.048Z,9.47
2018-06-12T22:06:54.571Z,9.07
2018-06-12T22:10:58.323Z,8.87
2018-06-12T22:15:01.971Z,9.53
2018-06-12T22:19:06.838Z,9.37
2018-06-12T22:23:10.993Z,9.03
2018-06-12T22:27:35.282Z,8.87
2018-06-12T22:31:39.067Z,9.80
2018-06-12T22:35:43.167Z,9.47
2018-06-12T22:39:46.922Z,9.70
2018-06-12T22:43:50.634Z,9.40
2018-06-12T22:47:53.812Z,8.80
2018-06-12T22:51:57.807Z,9.43
2018-06-12T22:56:01.414Z,8.47
2018-06-12T23:00:05.455Z,9.43
2018-06-12T23:04:09.167Z,9.13
2018-06-12T23:08:13.163Z,8.67
2018-06-12T23:12:16.711Z,9.17
2018-06-12T23:16:20.270Z,8.40
2018-06-12T23:21:39.477Z,9.47
2018-06-12T23:25:43.210Z,11.27
2018-06-12T23:29:46.947Z,10.40
2018-06-12T23:33:50.442Z,10.90
2018-06-12T23:37:54.227Z,11.17
2018-06-12T23:41:57.773Z,12.13
2018-06-12T23:46:01.530Z,11.93
2018-06-12T23:50:05.092Z,12.50
2018-06-12T23:54:09.446Z,13.07
2018-06-12T23:58:13.146Z,12.90
